Time;durP1;ratioP1;P1;durP2;ratioP2;P2;SDS_P1;SDS_P2;PMS_P1;PMS_P2;Temp;Humidity;BMP_temperature;BMP_pressure;BME280_temperature;BME280_humidity;BME280_pressure;Samples;Min_cycle;Max_cycle;Signal;HPM_P1;HPM_P2
2021/12/31 00:01:32;;;;;;;2.83;0.70;;;;;;;-141.50;100.00;63355.56;5093884;28;20044;-78
2021/12/31 00:04:02;;;;;;;2.42;0.90;;;;;;;-141.50;100.00;63355.56;5091238;28;20059;-79
2021/12/31 00:06:34;;;;;;;2.70;0.82;;;;;;;-141.50;100.00;63355.56;5094016;28;20052;-79
2021/12/31 00:09:15;;;;;;;3.63;0.80;;;;;;;-141.50;100.00;63355.56;5095733;28;20047;-79
2021/12/31 00:11:54;;;;;;;2.22;0.73;;;;;;;-141.50;100.00;63355.56;5095616;28;20060;-79
2021/12/31 00:14:44;;;;;;;3.30;0.80;;;;;;;-141.50;100.00;63355.56;5097049;28;20055;-79
2021/12/31 00:17:30;;;;;;;1.35;0.80;;;;;;;-141.50;100.00;63355.56;5097306;28;20082;-79
2021/12/31 00:20:04;;;;;;;1.75;0.70;;;;;;;-141.50;100.00;63355.56;5100508;28;20059;-80
2021/12/31 00:25:04;;;;;;;3.80;0.70;;;;;;;-141.50;100.00;63355.56;5091613;28;20052;-77
2021/12/31 00:27:31;;;;;;;1.10;0.68;;;;;;;-141.50;100.00;63355.56;5093654;28;20084;-80
2021/12/31 00:29:58;;;;;;;2.58;0.80;;;;;;;-141.50;100.00;63355.56;5092467;28;20185;-80
2021/12/31 00:32:24;;;;;;;1.45;0.60;;;;;;;-141.50;100.00;63355.56;5091473;28;20059;-80
2021/12/31 00:34:50;;;;;;;1.90;0.60;;;;;;;-141.50;100.00;63355.56;5089633;28;20109;-80
2021/12/31 00:37:26;;;;;;;1.67;0.65;;;;;;;-141.50;100.00;63355.56;5087164;28;20051;-80
2021/12/31 00:39:53;;;;;;;2.92;0.80;;;;;;;-141.50;100.00;63355.56;5084810;28;20048;-80
2021/12/31 00:42:20;;;;;;;1.40;0.65;;;;;;;-141.50;100.00;63355.56;5086282;28;20113;-80
2021/12/31 00:44:47;;;;;;;2.42;0.80;;;;;;;-141.50;100.00;63355.56;5089319;28;20048;-80
2021/12/31 00:47:14;;;;;;;2.53;0.60;;;;;;;-141.50;100.00;63355.56;5089521;28;20043;-81
2021/12/31 00:49:41;;;;;;;2.08;0.60;;;;;;;-141.50;100.00;63355.56;5089298;28;20100;-81
2021/12/31 00:52:07;;;;;;;0.73;0.60;;;;;;;-141.50;100.00;63355.56;5091104;28;20048;-80
2021/12/31 00:54:34;;;;;;;1.77;0.60;;;;;;;-141.50;100.00;63355.56;5091644;28;20048;-80
2021/12/31 00:57:03;;;;;;;1.95;0.50;;;;;;;-141.50;100.00;63355.56;5089411;28;20044;-80
2021/12/31 00:59:34;;;;;;;3.90;0.65;;;;;;;-141.50;100.00;63355.56;5089702;28;20051;-79
2021/12/31 01:02:03;;;;;;;1.48;0.60;;;;;;;-141.50;100.00;63355.56;5086858;28;20055;-79
2021/12/31 01:04:32;;;;;;;1.92;0.57;;;;;;;-141.50;100.00;63355.56;5088974;28;20134;-79
2021/12/31 01:07:01;;;;;;;0.80;0.45;;;;;;;-141.50;100.00;63355.56;5089922;28;20075;-79
2021/12/31 01:09:29;;;;;;;1.10;0.50;;;;;;;-141.50;100.00;63355.56;5087919;28;20418;-79
2021/12/31 01:11:57;;;;;;;2.63;0.60;;;;;;;-141.50;100.00;63355.56;5088628;28;20112;-79
2021/12/31 01:17:00;;;;;;;1.48;0.60;;;;;;;-141.50;100.00;63355.56;5087537;28;20579;-79
2021/12/31 01:21:54;;;;;;;1.05;0.60;;;;;;;-141.50;100.00;63355.56;5088728;28;20051;-78
2021/12/31 01:24:25;;;;;;;1.75;0.50;;;;;;;-141.50;100.00;63355.56;5087938;28;20135;-80
2021/12/31 01:26:53;;;;;;;1.73;0.50;;;;;;;-141.50;100.00;63355.56;5089297;28;20443;-79
2021/12/31 01:29:19;;;;;;;1.50;0.68;;;;;;;-141.50;100.00;63355.56;5089498;28;20079;-82
2021/12/31 01:31:45;;;;;;;1.45;0.43;;;;;;;-141.50;100.00;63355.56;5086623;28;20055;-80
2021/12/31 01:34:12;;;;;;;0.60;0.30;;;;;;;-141.50;100.00;63355.56;5089272;28;20103;-79
2021/12/31 01:36:38;;;;;;;2.63;0.52;;;;;;;-141.50;100.00;63355.56;5089621;28;20086;-80
2021/12/31 01:39:05;;;;;;;2.15;0.60;;;;;;;-141.50;100.00;63355.56;5088296;28;20048;-79
2021/12/31 01:41:31;;;;;;;1.42;0.57;;;;;;;-141.50;100.00;63355.56;5087239;28;20078;-78
2021/12/31 01:44:04;;;;;;;2.45;0.60;;;;;;;-141.50;100.00;63355.56;5088009;28;20765;-81
2021/12/31 01:46:30;;;;;;;1.80;0.50;;;;;;;-141.50;100.00;63355.56;5088829;28;20076;-79
2021/12/31 01:51:24;;;;;;;0.98;0.60;;;;;;;-141.50;100.00;63355.56;5089185;28;20553;-79
2021/12/31 01:53:50;;;;;;;1.23;0.60;;;;;;;-141.50;100.00;63355.56;5089848;28;20082;-80
2021/12/31 01:56:18;;;;;;;1.30;0.50;;;;;;;-141.50;100.00;63355.56;5089826;28;20121;-79
2021/12/31 01:58:55;;;;;;;0.90;0.40;;;;;;;-141.50;100.00;63355.56;5095864;28;20048;-79
2021/12/31 02:01:25;;;;;;;1.95;0.65;;;;;;;-141.50;100.00;63355.56;5100306;28;20044;-81
2021/12/31 02:03:52;;;;;;;1.02;0.50;;;;;;;-141.50;100.00;63355.56;5093341;28;20055;-79
2021/12/31 02:06:19;;;;;;;1.98;0.40;;;;;;;-141.50;100.00;63355.56;5108186;28;20181;-79
2021/12/31 02:08:46;;;;;;;2.28;0.40;;;;;;;-141.50;100.00;63355.56;5109052;28;20047;-80
2021/12/31 02:11:15;;;;;;;1.17;0.40;;;;;;;-141.50;100.00;63355.56;5112603;28;20138;-80
2021/12/31 02:13:42;;;;;;;1.27;0.60;;;;;;;-141.50;100.00;63355.56;5111928;28;20040;-79
2021/12/31 02:16:09;;;;;;;1.27;0.50;;;;;;;-141.50;100.00;63355.56;5114526;28;20184;-79
2021/12/31 02:18:36;;;;;;;1.05;0.50;;;;;;;-141.50;100.00;63355.56;5109706;28;20528;-79
2021/12/31 02:21:07;;;;;;;2.45;0.40;;;;;;;-141.50;100.00;63355.56;5113354;28;20051;-81
2021/12/31 02:23:42;;;;;;;3.15;0.60;;;;;;;-141.50;100.00;63355.56;5113711;28;20048;-80
2021/12/31 02:26:10;;;;;;;1.33;0.43;;;;;;;-141.50;100.00;63355.56;5112415;28;20565;-79
2021/12/31 02:28:37;;;;;;;1.10;0.40;;;;;;;-141.50;100.00;63355.56;5092982;28;20071;-82
2021/12/31 02:31:04;;;;;;;1.52;0.50;;;;;;;-141.50;100.00;63355.56;5092463;28;20052;-78
2021/12/31 02:33:32;;;;;;;1.30;0.60;;;;;;;-141.50;100.00;63355.56;5091175;28;20109;-80
2021/12/31 02:36:00;;;;;;;0.95;0.50;;;;;;;-141.50;100.00;63355.56;5091828;28;20124;-78
2021/12/31 02:38:29;;;;;;;1.23;0.50;;;;;;;-141.50;100.00;63355.56;5092834;28;20722;-77
2021/12/31 02:40:56;;;;;;;1.98;0.60;;;;;;;-141.50;100.00;63355.56;5093203;28;20074;-80
2021/12/31 02:43:23;;;;;;;1.00;0.50;;;;;;;-141.50;100.00;63355.56;5093871;28;20098;-79
2021/12/31 02:45:49;;;;;;;1.20;0.70;;;;;;;-141.50;100.00;63355.56;5091751;28;20047;-80
2021/12/31 02:48:24;;;;;;;2.22;0.60;;;;;;;-141.50;100.00;63355.56;5091789;28;20075;-77
2021/12/31 02:50:55;;;;;;;1.98;0.60;;;;;;;-141.50;100.00;63355.56;5093408;28;20048;-80
2021/12/31 02:53:31;;;;;;;3.42;0.70;;;;;;;-141.50;100.00;63355.56;5095677;28;20420;-77
2021/12/31 02:56:01;;;;;;;1.77;0.60;;;;;;;-141.50;100.00;63355.56;5114107;28;20066;-79
2021/12/31 02:58:28;;;;;;;1.33;0.73;;;;;;;-141.50;100.00;63355.56;5117439;28;20036;-77
2021/12/31 03:00:56;;;;;;;3.13;0.68;;;;;;;-141.50;100.00;63355.56;5102485;28;20476;-79
2021/12/31 03:03:24;;;;;;;1.92;0.80;;;;;;;-141.50;100.00;63355.56;5090152;28;20052;-79
2021/12/31 03:05:53;;;;;;;3.17;0.63;;;;;;;-141.50;100.00;63355.56;5091356;28;20048;-79
2021/12/31 03:08:22;;;;;;;3.63;0.90;;;;;;;-141.50;100.00;63355.56;5091973;28;20044;-80
2021/12/31 03:10:49;;;;;;;1.70;0.57;;;;;;;-141.50;100.00;63355.56;5091729;28;20082;-80
2021/12/31 03:13:16;;;;;;;1.85;0.90;;;;;;;-141.50;100.00;63355.56;5090666;28;20051;-79
2021/12/31 03:15:46;;;;;;;2.17;0.82;;;;;;;-141.50;100.00;63355.56;5091314;28;20585;-79
2021/12/31 03:18:14;;;;;;;2.67;1.00;;;;;;;-141.50;100.00;63355.56;5090555;28;20052;-79
2021/12/31 03:20:43;;;;;;;1.33;0.63;;;;;;;-141.50;100.00;63355.56;5091941;28;20593;-80
2021/12/31 03:23:10;;;;;;;1.15;0.70;;;;;;;-141.50;100.00;63355.56;5091654;28;20102;-78
2021/12/31 03:25:37;;;;;;;2.75;1.00;;;;;;;-141.50;100.00;63355.56;5091958;28;20480;-79
2021/12/31 03:28:04;;;;;;;1.88;0.70;;;;;;;-141.50;100.00;63355.56;5084712;28;20048;-77
2021/12/31 03:30:31;;;;;;;1.30;0.70;;;;;;;-141.50;100.00;63355.56;5068222;28;20075;-78
2021/12/31 03:32:58;;;;;;;1.98;0.82;;;;;;;-141.50;100.00;63355.56;5070014;28;20139;-80
2021/12/31 03:35:24;;;;;;;1.45;0.73;;;;;;;-141.50;100.00;63355.56;5069672;28;20079;-80
2021/12/31 03:37:51;;;;;;;3.05;0.80;;;;;;;-141.50;100.00;63355.56;5071246;28;20566;-78
2021/12/31 03:40:17;;;;;;;1.88;0.80;;;;;;;-141.50;100.00;63355.56;5069944;28;20068;-78
2021/12/31 03:42:44;;;;;;;3.42;0.80;;;;;;;-141.50;100.00;63355.56;5070788;28;20068;-79
2021/12/31 03:45:11;;;;;;;3.28;1.05;;;;;;;-141.50;100.00;63355.56;5069689;28;20049;-78
2021/12/31 03:47:37;;;;;;;3.00;0.80;;;;;;;-141.50;100.00;63355.56;5069418;28;20067;-79
2021/12/31 03:50:05;;;;;;;1.92;0.70;;;;;;;-141.50;100.00;63355.56;5069468;28;20060;-80
2021/12/31 03:52:36;;;;;;;2.95;0.80;;;;;;;-141.50;100.00;63355.56;5069544;28;20044;-79
2021/12/31 03:55:04;;;;;;;3.00;0.70;;;;;;;-141.50;100.00;63355.56;5068448;28;20048;-80
2021/12/31 03:57:30;;;;;;;3.85;1.20;;;;;;;-141.50;100.00;63355.56;5069620;28;20068;-79
2021/12/31 03:59:57;;;;;;;1.50;0.80;;;;;;;-141.50;100.00;63355.56;5070207;28;20433;-79
2021/12/31 04:02:23;;;;;;;1.55;0.80;;;;;;;-141.50;100.00;63355.56;5069912;28;20044;-79
2021/12/31 04:04:50;;;;;;;1.65;0.68;;;;;;;-141.50;100.00;63355.56;5068620;28;20079;-79
2021/12/31 04:07:16;;;;;;;1.92;0.90;;;;;;;-141.50;100.00;63355.56;5070983;28;20044;-79
2021/12/31 04:09:43;;;;;;;1.52;0.68;;;;;;;-141.50;100.00;63355.56;5069464;28;20049;-80
2021/12/31 04:12:09;;;;;;;1.70;0.95;;;;;;;-141.50;100.00;63355.56;5069773;28;20048;-79
2021/12/31 04:14:36;;;;;;;2.13;0.90;;;;;;;-141.50;100.00;63355.56;5069846;28;20053;-79
2021/12/31 04:17:03;;;;;;;1.98;0.80;;;;;;;-141.50;100.00;63355.56;5068241;28;20066;-80
2021/12/31 04:19:30;;;;;;;2.03;0.60;;;;;;;-141.50;100.00;63355.56;5068932;28;20082;-80
2021/12/31 04:21:57;;;;;;;3.85;1.00;;;;;;;-141.50;100.00;63355.56;5069590;28;20146;-79
2021/12/31 04:24:40;;;;;;;1.77;0.80;;;;;;;-141.50;100.00;63355.56;5083219;28;20048;-80
2021/12/31 04:27:06;;;;;;;3.00;0.93;;;;;;;-141.50;100.00;63355.56;5084772;28;20045;-78
2021/12/31 04:29:33;;;;;;;1.10;0.70;;;;;;;-141.50;100.00;63355.56;5084212;28;20055;-81
2021/12/31 04:32:00;;;;;;;2.17;0.90;;;;;;;-141.50;100.00;63355.56;5081623;28;20102;-81
2021/12/31 04:34:28;;;;;;;2.67;0.73;;;;;;;-141.50;100.00;63355.56;5078201;28;20074;-79
2021/12/31 04:36:54;;;;;;;1.55;0.80;;;;;;;-141.50;100.00;63355.56;5079625;28;20157;-79
2021/12/31 04:39:21;;;;;;;0.98;0.50;;;;;;;-141.50;100.00;63355.56;5076042;28;20056;-81
2021/12/31 04:41:48;;;;;;;1.58;0.70;;;;;;;-141.50;100.00;63355.56;5071021;28;20048;-78
2021/12/31 04:44:15;;;;;;;1.17;0.68;;;;;;;-141.50;100.00;63355.56;5069780;28;20102;-78
2021/12/31 04:46:41;;;;;;;1.63;0.70;;;;;;;-141.50;100.00;63355.56;5068722;28;20048;-79
2021/12/31 04:49:08;;;;;;;3.65;1.33;;;;;;;-141.50;100.00;63355.56;5069315;28;20052;-80
2021/12/31 04:51:37;;;;;;;2.55;0.65;;;;;;;-141.50;100.00;63355.56;5071274;28;20079;-80
2021/12/31 04:54:04;;;;;;;1.10;0.40;;;;;;;-141.50;100.00;63355.56;5072412;28;20052;-80
2021/12/31 04:56:31;;;;;;;3.47;0.70;;;;;;;-141.50;100.00;63355.56;5071458;28;20044;-79
2021/12/31 04:58:58;;;;;;;0.90;0.50;;;;;;;-141.50;100.00;63355.56;5070470;28;20079;-79
2021/12/31 05:01:24;;;;;;;1.85;0.50;;;;;;;-141.50;100.00;63355.56;5069256;28;20068;-80
2021/12/31 05:03:54;;;;;;;1.40;0.60;;;;;;;-141.50;100.00;63355.56;5068296;28;20052;-80
2021/12/31 05:06:21;;;;;;;1.35;0.60;;;;;;;-141.50;100.00;63355.56;5068630;28;20044;-79
2021/12/31 05:08:47;;;;;;;1.40;0.60;;;;;;;-141.50;100.00;63355.56;5069739;28;20048;-80
2021/12/31 05:11:14;;;;;;;1.73;0.70;;;;;;;-141.50;100.00;63355.56;5070372;28;20665;-80
2021/12/31 05:13:40;;;;;;;1.95;0.60;;;;;;;-141.50;100.00;63355.56;5068279;28;20437;-78
2021/12/31 05:16:07;;;;;;;2.17;0.52;;;;;;;-141.50;100.00;63355.56;5070135;28;20045;-80
2021/12/31 05:18:33;;;;;;;1.15;0.50;;;;;;;-141.50;100.00;63355.56;5068121;28;20056;-80
2021/12/31 05:21:00;;;;;;;1.35;0.60;;;;;;;-141.50;100.00;63355.56;5068209;28;20056;-81
2021/12/31 05:23:26;;;;;;;2.80;0.50;;;;;;;-141.50;100.00;63355.56;5069965;28;20048;-78
2021/12/31 05:25:58;;;;;;;2.38;0.50;;;;;;;-141.50;100.00;63355.56;5069765;28;20139;-80
2021/12/31 05:28:25;;;;;;;0.93;0.40;;;;;;;-141.50;100.00;63355.56;5069605;28;20056;-80
2021/12/31 05:30:51;;;;;;;1.75;0.60;;;;;;;-141.50;100.00;63355.56;5069446;28;20048;-80
2021/12/31 05:33:18;;;;;;;0.82;0.60;;;;;;;-141.50;100.00;63355.56;5066828;28;20048;-80
2021/12/31 05:35:44;;;;;;;1.17;0.65;;;;;;;-141.50;100.00;63355.56;5070431;28;20044;-81
2021/12/31 05:38:11;;;;;;;1.35;0.60;;;;;;;-141.50;100.00;63355.56;5071282;28;20064;-78
2021/12/31 05:40:37;;;;;;;1.35;0.50;;;;;;;-141.50;100.00;63355.56;5068430;28;20501;-80
2021/12/31 05:43:04;;;;;;;1.23;0.55;;;;;;;-141.50;100.00;63355.56;5069538;28;20083;-79
2021/12/31 05:45:30;;;;;;;1.23;0.55;;;;;;;-141.50;100.00;63355.56;5071876;28;20120;-79
2021/12/31 05:48:17;;;;;;;1.42;0.60;;;;;;;-141.50;100.00;63355.56;5070730;28;20138;-78
2021/12/31 05:50:43;;;;;;;1.80;0.68;;;;;;;-141.50;100.00;63355.56;5073785;28;20102;-79
2021/12/31 05:53:10;;;;;;;0.88;0.47;;;;;;;-141.50;100.00;63355.56;5075245;28;20087;-79
2021/12/31 05:55:36;;;;;;;2.00;0.68;;;;;;;-141.50;100.00;63355.56;5074920;28;20067;-79
2021/12/31 05:58:03;;;;;;;1.20;0.50;;;;;;;-141.50;100.00;63355.56;5074637;28;20099;-80
2021/12/31 06:00:29;;;;;;;1.83;0.60;;;;;;;-141.50;100.00;63355.56;5074871;28;20065;-81
2021/12/31 06:02:56;;;;;;;1.75;0.50;;;;;;;-141.50;100.00;63355.56;5073157;28;20053;-80
2021/12/31 06:05:25;;;;;;;1.80;0.60;;;;;;;-141.50;100.00;63355.56;5074159;28;20146;-80
2021/12/31 06:07:55;;;;;;;0.85;0.65;;;;;;;-141.50;100.00;63355.56;5076843;28;20535;-80
2021/12/31 06:10:22;;;;;;;3.13;0.50;;;;;;;-141.50;100.00;63355.56;5073996;28;20056;-77
2021/12/31 06:12:50;;;;;;;1.17;0.55;;;;;;;-141.50;100.00;63355.56;5074106;28;20094;-80
2021/12/31 06:15:19;;;;;;;1.55;0.65;;;;;;;-141.50;100.00;63355.56;5094997;28;20033;-80
2021/12/31 06:17:45;;;;;;;1.95;0.80;;;;;;;-141.50;100.00;63355.56;5098299;28;20052;-80
2021/12/31 06:20:12;;;;;;;1.80;0.43;;;;;;;-141.50;100.00;63355.56;5076780;28;20045;-80
2021/12/31 06:22:39;;;;;;;1.52;0.60;;;;;;;-141.50;100.00;63355.56;5095422;28;20297;-80
2021/12/31 06:25:06;;;;;;;1.05;0.55;;;;;;;-141.50;100.00;63355.56;5091455;28;20557;-78
2021/12/31 06:27:33;;;;;;;2.97;0.63;;;;;;;-141.50;100.00;63355.56;5096672;28;20075;-78
2021/12/31 06:29:59;;;;;;;1.17;0.50;;;;;;;-141.50;100.00;63355.56;5094540;28;20044;-79
2021/12/31 06:32:26;;;;;;;2.25;0.55;;;;;;;-141.50;100.00;63355.56;5091563;28;20720;-80
2021/12/31 06:34:52;;;;;;;2.28;0.50;;;;;;;-141.50;100.00;63355.56;5093461;28;20060;-80
2021/12/31 06:37:19;;;;;;;0.68;0.47;;;;;;;-141.50;100.00;63355.56;5095356;28;20044;-81
2021/12/31 06:39:46;;;;;;;0.70;0.50;;;;;;;-141.50;100.00;63355.56;5094686;28;20074;-81
2021/12/31 06:42:13;;;;;;;2.35;0.70;;;;;;;-141.50;100.00;63355.56;5093449;28;20082;-79
2021/12/31 06:44:40;;;;;;;1.63;0.70;;;;;;;-141.50;100.00;63355.56;5094240;28;20127;-80
2021/12/31 06:47:07;;;;;;;1.75;0.80;;;;;;;-141.50;100.00;63355.56;5093082;28;20085;-80
2021/12/31 06:49:34;;;;;;;1.77;0.70;;;;;;;-141.50;100.00;63355.56;5093143;28;20052;-81
2021/12/31 06:52:02;;;;;;;1.65;0.60;;;;;;;-141.50;100.00;63355.56;5093634;28;20048;-80
2021/12/31 06:54:29;;;;;;;2.78;0.80;;;;;;;-141.50;100.00;63355.56;5098654;28;20048;-78
2021/12/31 06:56:55;;;;;;;1.17;0.60;;;;;;;-141.50;100.00;63355.56;5108519;28;20040;-80
2021/12/31 06:59:22;;;;;;;3.90;0.60;;;;;;;-141.50;100.00;63355.56;5099588;28;20052;-80
2021/12/31 07:01:48;;;;;;;1.98;0.80;;;;;;;-141.50;100.00;63355.56;5091587;28;20048;-80
2021/12/31 07:04:15;;;;;;;2.08;0.60;;;;;;;-141.50;100.00;63355.56;5093214;28;20051;-81
2021/12/31 07:06:42;;;;;;;3.08;0.50;;;;;;;-141.50;100.00;63355.56;5092210;28;20080;-80
2021/12/31 07:09:08;;;;;;;1.13;0.60;;;;;;;-141.50;100.00;63355.56;5093029;28;20138;-81
2021/12/31 07:11:35;;;;;;;1.08;0.70;;;;;;;-141.50;100.00;63355.56;5083934;28;20564;-78
2021/12/31 07:14:03;;;;;;;1.10;0.65;;;;;;;-141.50;100.00;63355.56;5072003;28;20484;-81
2021/12/31 07:16:29;;;;;;;1.60;0.55;;;;;;;-141.50;100.00;63355.56;5089414;28;20098;-79
2021/12/31 07:18:56;;;;;;;2.97;0.93;;;;;;;-141.50;100.00;63355.56;5085938;28;20051;-80
2021/12/31 07:21:22;;;;;;;1.13;0.70;;;;;;;-141.50;100.00;63355.56;5088178;28;20166;-79
2021/12/31 07:23:49;;;;;;;2.50;0.70;;;;;;;-141.50;100.00;63355.56;5089306;28;20071;-81
2021/12/31 07:26:15;;;;;;;1.77;0.65;;;;;;;-141.50;100.00;63355.56;5089745;28;20535;-80
2021/12/31 07:28:42;;;;;;;2.80;0.70;;;;;;;-141.50;100.00;63355.56;5087676;28;20142;-81
2021/12/31 07:31:12;;;;;;;3.13;0.70;;;;;;;-141.50;100.00;63355.56;5087902;28;20106;-80
2021/12/31 07:33:39;;;;;;;2.88;0.80;;;;;;;-141.50;100.00;63355.56;5086374;28;20056;-79
2021/12/31 07:36:06;;;;;;;4.28;1.10;;;;;;;-141.50;100.00;63355.56;5080363;28;20121;-81
2021/12/31 07:38:35;;;;;;;2.85;0.70;;;;;;;-141.50;100.00;63355.56;5073040;28;20472;-80
2021/12/31 07:41:03;;;;;;;2.42;0.80;;;;;;;-141.50;100.00;63355.56;5085059;28;20129;-80
2021/12/31 07:43:29;;;;;;;1.15;0.57;;;;;;;-141.50;100.00;63355.56;5088088;28;20154;-78
2021/12/31 07:45:56;;;;;;;1.90;0.77;;;;;;;-141.50;100.00;63355.56;5087089;28;20094;-79
2021/12/31 07:48:23;;;;;;;2.67;1.00;;;;;;;-141.50;100.00;63355.56;5086747;28;20511;-81
2021/12/31 07:50:51;;;;;;;2.13;0.80;;;;;;;-141.50;100.00;63355.56;5076400;28;20048;-80
2021/12/31 07:53:17;;;;;;;1.88;0.70;;;;;;;-141.50;100.00;63355.56;5076919;28;20048;-79
2021/12/31 07:55:44;;;;;;;1.50;0.73;;;;;;;-141.50;100.00;63355.56;5078002;28;20048;-80
2021/12/31 07:58:11;;;;;;;2.40;0.80;;;;;;;-141.50;100.00;63355.56;5075271;28;20131;-79
2021/12/31 08:00:38;;;;;;;4.50;0.82;;;;;;;-141.50;100.00;63355.56;5077675;28;20097;-79
2021/12/31 08:03:05;;;;;;;2.92;1.10;;;;;;;-141.50;100.00;63355.56;5072213;28;20048;-79
2021/12/31 08:05:32;;;;;;;5.38;1.02;;;;;;;-141.50;100.00;63355.56;5075807;28;20066;-79
2021/12/31 08:08:01;;;;;;;3.97;0.98;;;;;;;-141.50;100.00;63355.56;5077299;28;20101;-81
2021/12/31 08:10:28;;;;;;;1.85;0.90;;;;;;;-141.50;100.00;63355.56;5080584;28;20086;-79
2021/12/31 08:13:14;;;;;;;1.92;0.73;;;;;;;-141.50;100.00;63355.56;5079955;28;20048;-80
2021/12/31 08:15:41;;;;;;;1.98;0.82;;;;;;;-141.50;100.00;63355.56;5083734;28;20084;-77
2021/12/31 08:18:08;;;;;;;3.80;0.90;;;;;;;-141.50;100.00;63355.56;5066176;28;20503;-77
2021/12/31 08:20:36;;;;;;;1.98;0.80;;;;;;;-141.50;100.00;63355.56;5064540;28;20052;-78
2021/12/31 08:23:10;;;;;;;4.80;0.85;;;;;;;-141.50;100.00;63355.56;5069653;28;20446;-77
2021/12/31 08:25:38;;;;;;;1.50;0.77;;;;;;;-141.50;100.00;63355.56;5067124;28;20048;-75
2021/12/31 08:28:05;;;;;;;2.88;0.80;;;;;;;-141.50;100.00;63355.56;5067373;28;20055;-79
2021/12/31 08:30:32;;;;;;;3.33;0.80;;;;;;;-141.50;100.00;63355.56;5066706;28;20056;-80
2021/12/31 08:32:59;;;;;;;2.97;0.90;;;;;;;-141.50;100.00;63355.56;5065541;28;20101;-80
2021/12/31 08:35:27;;;;;;;5.95;1.10;;;;;;;-141.50;100.00;63355.56;5071245;28;20105;-79
2021/12/31 08:37:53;;;;;;;2.92;0.93;;;;;;;-141.50;100.00;63355.56;5084899;28;20115;-80
2021/12/31 08:40:20;;;;;;;3.67;0.90;;;;;;;-141.50;100.00;63355.56;5086131;28;20193;-80
2021/12/31 08:42:47;;;;;;;2.22;0.90;;;;;;;-141.50;100.00;63355.56;5086091;28;20109;-81
2021/12/31 08:45:16;;;;;;;4.45;0.90;;;;;;;-141.50;100.00;63355.56;5085161;28;20059;-81
2021/12/31 08:47:44;;;;;;;2.72;0.88;;;;;;;-141.50;100.00;63355.56;5083576;28;20063;-82
2021/12/31 08:50:11;;;;;;;2.42;0.73;;;;;;;-141.50;100.00;63355.56;5084643;28;20052;-80
2021/12/31 08:52:37;;;;;;;2.63;0.88;;;;;;;-141.50;100.00;63355.56;5085474;28;20115;-80
2021/12/31 08:55:06;;;;;;;4.70;1.20;;;;;;;-141.50;100.00;63355.56;5087560;28;20101;-81
2021/12/31 08:57:32;;;;;;;2.60;1.08;;;;;;;-141.50;100.00;63355.56;5088880;28;20070;-80
2021/12/31 08:59:59;;;;;;;4.35;0.95;;;;;;;-141.50;100.00;63355.56;5086981;28;20424;-79
2021/12/31 09:02:25;;;;;;;2.38;1.00;;;;;;;-141.50;100.00;63355.56;5088029;28;20050;-79
2021/12/31 09:04:52;;;;;;;2.05;0.98;;;;;;;-141.50;100.00;63355.56;5089664;28;20062;-79
2021/12/31 09:07:19;;;;;;;3.35;1.05;;;;;;;-141.50;100.00;63355.56;5087910;28;20060;-80
2021/12/31 09:09:45;;;;;;;2.83;0.85;;;;;;;-141.50;100.00;63355.56;5088955;28;20059;-79
2021/12/31 09:12:12;;;;;;;3.50;1.02;;;;;;;-141.50;100.00;63355.56;5093296;28;20056;-80
2021/12/31 09:14:38;;;;;;;2.97;1.00;;;;;;;-141.50;100.00;63355.56;5090295;28;20052;-79
2021/12/31 09:17:05;;;;;;;1.95;0.98;;;;;;;-141.50;100.00;63355.56;5085150;28;20079;-80
2021/12/31 09:19:31;;;;;;;3.35;1.42;;;;;;;-141.50;100.00;63355.56;5088539;28;20477;-79
2021/12/31 09:21:58;;;;;;;6.35;1.30;;;;;;;-141.50;100.00;63355.56;5102046;28;20244;-80
2021/12/31 09:24:24;;;;;;;3.75;1.02;;;;;;;-141.50;100.00;63355.56;5094849;28;20078;-79
2021/12/31 09:26:51;;;;;;;3.40;1.20;;;;;;;-141.50;100.00;63355.56;5088431;28;20412;-80
2021/12/31 09:29:20;;;;;;;3.45;1.17;;;;;;;-141.50;100.00;63355.56;5088881;28;20055;-78
2021/12/31 09:31:47;;;;;;;2.47;0.98;;;;;;;-141.50;100.00;63355.56;5096514;28;20062;-81
2021/12/31 09:34:14;;;;;;;4.75;1.10;;;;;;;-141.50;100.00;63355.56;5108853;28;20059;-81
2021/12/31 09:36:40;;;;;;;2.50;1.10;;;;;;;-141.50;100.00;63355.56;5109573;28;20162;-81
2021/12/31 09:39:07;;;;;;;2.85;1.15;;;;;;;-141.50;100.00;63355.56;5086005;28;21932;-80
2021/12/31 09:41:34;;;;;;;1.98;1.00;;;;;;;-141.50;100.00;63355.56;5078279;28;20044;-81
2021/12/31 09:44:01;;;;;;;2.25;0.90;;;;;;;-141.50;100.00;63355.56;5078906;28;20396;-82
2021/12/31 09:46:27;;;;;;;4.90;1.17;;;;;;;-141.50;100.00;63355.56;5078960;28;20048;-81
2021/12/31 09:48:54;;;;;;;2.40;1.23;;;;;;;-141.50;100.00;63355.56;5077198;28;20078;-80
2021/12/31 09:51:21;;;;;;;2.85;1.13;;;;;;;-141.50;100.00;63355.56;5077756;28;20051;-81
2021/12/31 09:53:50;;;;;;;6.05;1.60;;;;;;;-141.50;100.00;63355.56;5084753;28;20496;-78
2021/12/31 09:56:16;;;;;;;3.58;1.30;;;;;;;-141.50;100.00;63355.56;5078124;28;20072;-80
2021/12/31 09:58:44;;;;;;;4.38;1.20;;;;;;;-141.50;100.00;63355.56;5077486;28;20044;-81
2021/12/31 10:01:10;;;;;;;3.63;1.10;;;;;;;-141.50;100.00;63355.56;5079528;28;20052;-81
2021/12/31 10:03:37;;;;;;;5.03;1.27;;;;;;;-141.50;100.00;63355.56;5085336;28;20450;-81
2021/12/31 10:06:09;;;;;;;3.70;1.13;;;;;;;-141.50;100.00;63355.56;5085831;28;20051;-82
2021/12/31 10:08:42;;;;;;;4.55;1.33;;;;;;;-141.50;100.00;63355.56;5065386;28;20076;-81
2021/12/31 10:11:12;;;;;;;3.55;1.30;;;;;;;-141.50;100.00;63355.56;5065941;28;20045;-81
2021/12/31 10:13:40;;;;;;;4.85;1.15;;;;;;;-141.50;100.00;63355.56;5065463;28;20072;-82
2021/12/31 10:16:22;;;;;;;6.53;1.30;;;;;;;-141.50;100.00;63355.56;5066141;28;20064;-81
2021/12/31 10:18:49;;;;;;;4.55;1.10;;;;;;;-141.50;100.00;63355.56;5066440;28;20355;-82
2021/12/31 10:21:19;;;;;;;3.97;1.15;;;;;;;-141.50;100.00;63355.56;5076331;28;20548;-80
2021/12/31 10:23:48;;;;;;;1.88;1.00;;;;;;;-141.50;100.00;63355.56;5076485;28;20117;-80
2021/12/31 10:26:17;;;;;;;2.97;1.20;;;;;;;-141.50;100.00;63355.56;5076865;28;20056;-79
2021/12/31 10:28:57;;;;;;;2.70;1.00;;;;;;;-141.50;100.00;63355.56;5071963;28;20048;-80
2021/12/31 10:31:27;;;;;;;3.05;1.20;;;;;;;-141.50;100.00;63355.56;5069830;28;20497;-80
2021/12/31 10:33:55;;;;;;;3.45;1.23;;;;;;;-141.50;100.00;63355.56;5069485;28;20052;-80
2021/12/31 10:36:35;;;;;;;2.50;1.20;;;;;;;-141.50;100.00;63355.56;5069369;28;20080;-80
2021/12/31 10:39:15;;;;;;;3.83;1.10;;;;;;;-141.50;100.00;63355.56;5069888;28;20056;-80
2021/12/31 10:41:42;;;;;;;2.75;1.20;;;;;;;-141.50;100.00;63355.56;5068143;28;20056;-80
2021/12/31 10:44:08;;;;;;;4.03;1.08;;;;;;;-141.50;100.00;63355.56;5069149;28;20467;-79
2021/12/31 10:46:35;;;;;;;2.83;1.05;;;;;;;-141.50;100.00;63355.56;5072731;28;20064;-80
2021/12/31 10:49:07;;;;;;;2.40;1.10;;;;;;;-141.50;100.00;63355.56;5076769;28;20068;-80
2021/12/31 10:51:43;;;;;;;3.30;1.20;;;;;;;-141.50;100.00;63355.56;5080677;28;20087;-81
2021/12/31 10:54:37;;;;;;;5.00;1.10;;;;;;;-141.50;100.00;63355.56;5090566;28;20105;-78
2021/12/31 10:57:06;;;;;;;4.25;1.48;;;;;;;-141.50;100.00;63355.56;5088864;28;20318;-80
2021/12/31 10:59:37;;;;;;;3.28;1.15;;;;;;;-141.50;100.00;63355.56;5087700;28;20056;-79
2021/12/31 11:02:04;;;;;;;5.47;1.25;;;;;;;-141.50;100.00;63355.56;5082130;28;20072;-79
2021/12/31 11:04:34;;;;;;;3.22;1.20;;;;;;;-141.50;100.00;63355.56;5079706;28;20052;-81
2021/12/31 11:07:01;;;;;;;3.78;1.30;;;;;;;-141.50;100.00;63355.56;5089514;28;20514;-79
2021/12/31 11:09:31;;;;;;;4.13;1.50;;;;;;;-141.50;100.00;63355.56;5086886;28;20444;-80
2021/12/31 11:11:58;;;;;;;3.67;1.35;;;;;;;-141.50;100.00;63355.56;5082779;28;20446;-81
2021/12/31 11:14:25;;;;;;;4.53;1.23;;;;;;;-141.50;100.00;63355.56;5087935;28;20117;-80
2021/12/31 11:16:53;;;;;;;5.20;1.20;;;;;;;-141.50;100.00;63355.56;5087406;28;20056;-81
2021/12/31 11:19:20;;;;;;;3.95;1.20;;;;;;;-141.50;100.00;63355.56;5087120;28;20455;-80
2021/12/31 11:21:50;;;;;;;3.95;1.48;;;;;;;-141.50;100.00;63355.56;5089125;28;20083;-80
2021/12/31 11:24:38;;;;;;;5.85;1.33;;;;;;;-141.50;100.00;63355.56;5089497;28;20095;-79